createdAt,value
2022-12-09T00:01:09.836Z,0.38
2022-12-09T00:03:37.410Z,0.30
2022-12-09T00:06:09.425Z,0.25
2022-12-09T00:08:37.808Z,0.18
2022-12-09T00:11:05.703Z,0.14
2022-12-09T00:13:34.050Z,0.17
2022-12-09T00:16:08.924Z,0.18
2022-12-09T00:18:36.044Z,0.15
2022-12-09T00:21:12.444Z,0.17
2022-12-09T00:23:39.412Z,0.28
2022-12-09T00:26:06.899Z,0.32
2022-12-09T00:28:33.923Z,0.22
2022-12-09T00:31:08.007Z,0.33
2022-12-09T00:33:37.172Z,0.22
2022-12-09T00:36:06.321Z,0.21
2022-12-09T00:38:33.565Z,0.30
2022-12-09T00:41:02.551Z,0.25
2022-12-09T00:43:32.186Z,0.23
2022-12-09T00:45:59.063Z,0.22
2022-12-09T00:48:28.743Z,0.17
2022-12-09T00:50:58.913Z,0.23
2022-12-09T00:53:25.899Z,0.21
2022-12-09T00:55:54.219Z,0.20
2022-12-09T00:58:21.052Z,0.16
2022-12-09T01:00:49.558Z,0.18
2022-12-09T01:03:18.494Z,0.22
2022-12-09T01:05:47.956Z,0.21
2022-12-09T01:08:15.715Z,0.16
2022-12-09T01:10:44.730Z,0.18
2022-12-09T01:13:15.049Z,0.25
2022-12-09T01:15:42.629Z,0.21
2022-12-09T01:18:10.625Z,0.21
2022-12-09T01:20:37.499Z,0.16
2022-12-09T01:23:08.767Z,0.22
2022-12-09T01:25:38.060Z,0.26
2022-12-09T01:28:06.271Z,0.30
2022-12-09T01:30:33.288Z,0.30
2022-12-09T01:33:01.787Z,0.37
2022-12-09T01:35:30.010Z,0.30
2022-12-09T01:37:56.921Z,0.25
2022-12-09T01:40:25.735Z,0.28
2022-12-09T01:42:53.727Z,0.24
2022-12-09T01:45:39.615Z,0.22
2022-12-09T01:48:10.270Z,0.26
2022-12-09T01:50:38.988Z,0.23
2022-12-09T01:53:07.526Z,0.24
2022-12-09T01:55:36.144Z,0.25
2022-12-09T01:58:05.490Z,0.23
2022-12-09T02:00:32.992Z,0.21
2022-12-09T02:03:01.665Z,0.17
2022-12-09T02:05:30.983Z,0.18
2022-12-09T02:07:58.597Z,0.19
2022-12-09T02:10:28.825Z,0.20
2022-12-09T02:13:09.069Z,0.22
2022-12-09T02:15:41.768Z,0.21
2022-12-09T02:18:18.574Z,0.21
2022-12-09T02:20:54.128Z,0.21
2022-12-09T02:23:30.237Z,0.19
2022-12-09T02:26:05.428Z,0.20
2022-12-09T02:31:53.247Z,0.15
2022-12-09T02:34:23.280Z,0.22
2022-12-09T02:36:59.623Z,0.21
2022-12-09T02:39:33.584Z,0.26
2022-12-09T02:42:02.697Z,0.23
2022-12-09T02:44:30.822Z,0.22
2022-12-09T02:46:59.078Z,0.23
2022-12-09T02:49:30.860Z,0.23
2022-12-09T02:51:58.976Z,0.22
2022-12-09T02:54:30.644Z,0.26
2022-12-09T02:57:04.538Z,0.23
2022-12-09T02:59:31.565Z,0.17
2022-12-09T03:02:04.236Z,0.14
2022-12-09T03:04:32.985Z,0.12
2022-12-09T03:07:15.318Z,0.14
2022-12-09T03:09:47.776Z,0.19
2022-12-09T03:12:20.130Z,0.15
2022-12-09T03:14:51.980Z,0.17
2022-12-09T03:17:24.322Z,0.18
2022-12-09T03:19:56.667Z,0.26
2022-12-09T03:22:28.646Z,0.28
2022-12-09T03:25:02.809Z,0.19
2022-12-09T03:27:35.201Z,0.24
2022-12-09T03:30:04.422Z,0.18
2022-12-09T03:32:33.328Z,0.14
2022-12-09T03:35:07.931Z,0.18
2022-12-09T03:37:36.408Z,0.19
2022-12-09T03:40:13.708Z,0.15
2022-12-09T03:42:47.955Z,0.13
2022-12-09T03:45:17.819Z,0.11
2022-12-09T03:47:45.265Z,0.11
2022-12-09T03:50:14.199Z,0.12
2022-12-09T03:52:47.152Z,0.15
2022-12-09T03:55:21.086Z,0.12
2022-12-09T03:57:55.939Z,0.16
2022-12-09T04:00:23.221Z,0.13
2022-12-09T04:02:50.666Z,0.12
2022-12-09T04:05:19.202Z,0.11
2022-12-09T04:07:46.398Z,0.10
2022-12-09T04:10:13.826Z,0.10
2022-12-09T04:12:40.994Z,0.10
2022-12-09T04:15:08.865Z,0.15
2022-12-09T04:17:36.100Z,0.13
2022-12-09T04:20:03.992Z,0.11
2022-12-09T04:22:32.867Z,0.11
2022-12-09T04:24:59.887Z,0.10
2022-12-09T04:27:26.910Z,0.20
2022-12-09T04:29:55.278Z,0.15
2022-12-09T04:32:22.145Z,0.13
2022-12-09T04:34:51.454Z,0.11
2022-12-09T04:37:18.675Z,0.15
2022-12-09T04:39:47.951Z,0.22
2022-12-09T04:42:15.120Z,0.59
2022-12-09T04:44:43.184Z,0.41
2022-12-09T04:47:10.751Z,0.30
2022-12-09T04:49:38.958Z,0.21
2022-12-09T04:52:06.087Z,0.20
2022-12-09T04:54:34.144Z,0.20
2022-12-09T04:57:02.469Z,0.27
2022-12-09T04:59:32.407Z,0.19
2022-12-09T05:01:59.379Z,0.19
2022-12-09T05:04:26.418Z,0.15
2022-12-09T05:06:55.025Z,0.82
2022-12-09T05:09:22.437Z,0.53
2022-12-09T05:11:49.656Z,0.35
2022-12-09T05:14:18.079Z,0.26
2022-12-09T05:16:46.273Z,0.23
2022-12-09T05:19:13.600Z,0.17
2022-12-09T05:21:40.659Z,0.18
2022-12-09T05:24:07.698Z,0.20
2022-12-09T05:26:40.033Z,0.16
2022-12-09T05:29:07.050Z,0.19
2022-12-09T05:31:36.573Z,0.19
2022-12-09T05:34:04.684Z,0.20
2022-12-09T05:36:31.825Z,0.15
2022-12-09T05:38:59.154Z,0.24
2022-12-09T05:41:26.272Z,0.20
2022-12-09T05:43:53.491Z,0.15
2022-12-09T05:46:27.653Z,0.18
2022-12-09T05:48:56.942Z,0.23
2022-12-09T05:51:25.426Z,0.25
2022-12-09T05:53:53.105Z,0.26
2022-12-09T05:56:22.224Z,0.23
2022-12-09T05:58:49.912Z,0.21
2022-12-09T06:01:19.422Z,0.17
2022-12-09T06:03:47.276Z,0.18
2022-12-09T06:06:18.826Z,0.24
2022-12-09T06:08:47.349Z,0.43
2022-12-09T06:11:16.816Z,0.34
2022-12-09T06:13:44.730Z,0.32
2022-12-09T06:16:14.880Z,0.31
2022-12-09T06:18:42.756Z,0.42
2022-12-09T06:21:13.553Z,0.36
2022-12-09T06:23:44.324Z,0.29
2022-12-09T06:26:17.772Z,0.29
2022-12-09T06:28:45.317Z,0.25
2022-12-09T06:31:13.049Z,0.49
2022-12-09T06:33:58.863Z,0.35
2022-12-09T06:36:28.301Z,0.33
2022-12-09T06:39:01.776Z,0.27
2022-12-09T06:41:33.991Z,0.24
2022-12-09T06:44:01.375Z,0.22
2022-12-09T06:46:28.808Z,0.21
2022-12-09T06:48:56.819Z,0.25
2022-12-09T06:51:26.044Z,0.31
2022-12-09T06:53:53.551Z,0.31
2022-12-09T06:56:23.236Z,0.31
2022-12-09T06:58:51.990Z,0.69
2022-12-09T07:01:22.745Z,0.47
2022-12-09T07:03:53.333Z,0.39
2022-12-09T07:06:28.594Z,0.51
2022-12-09T07:08:58.305Z,0.43
2022-12-09T07:11:27.286Z,0.55
2022-12-09T07:13:54.841Z,0.48
2022-12-09T07:16:22.122Z,0.39
2022-12-09T07:18:49.480Z,0.35
2022-12-09T07:21:18.801Z,0.37
2022-12-09T07:24:02.132Z,0.34
2022-12-09T07:26:35.801Z,0.43
2022-12-09T07:29:05.127Z,0.49
2022-12-09T07:31:33.531Z,0.35
2022-12-09T07:34:05.772Z,0.32
2022-12-09T07:36:36.700Z,0.72
2022-12-09T07:39:07.598Z,0.76
2022-12-09T07:41:39.301Z,0.87
2022-12-09T07:44:09.983Z,0.73
2022-12-09T07:46:40.131Z,0.76
2022-12-09T07:49:08.340Z,0.98
2022-12-09T07:51:36.237Z,0.81
2022-12-09T07:54:13.850Z,0.71
2022-12-09T07:56:45.547Z,0.56
2022-12-09T07:59:15.236Z,0.49
2022-12-09T08:01:46.009Z,0.49
2022-12-09T08:04:13.535Z,1.21
2022-12-09T08:06:43.404Z,1.58
2022-12-09T08:09:13.882Z,1.49
2022-12-09T08:11:42.813Z,1.01
2022-12-09T08:14:13.349Z,0.91
2022-12-09T08:16:43.651Z,0.85
2022-12-09T08:19:11.261Z,1.73
2022-12-09T08:21:40.754Z,1.99
2022-12-09T08:24:08.823Z,2.11
2022-12-09T08:26:38.339Z,2.04
2022-12-09T08:29:12.019Z,2.02
2022-12-09T08:31:43.938Z,2.43
2022-12-09T08:34:11.971Z,1.71
2022-12-09T08:36:39.257Z,1.65
2022-12-09T08:39:07.878Z,1.58
2022-12-09T08:41:37.746Z,1.15
2022-12-09T08:44:11.223Z,1.21
2022-12-09T08:46:40.091Z,1.08
2022-12-09T08:49:09.198Z,1.00
2022-12-09T08:51:38.156Z,0.85
2022-12-09T08:54:07.138Z,1.17
2022-12-09T08:56:34.703Z,1.23
2022-12-09T08:59:02.188Z,1.27
2022-12-09T09:01:32.923Z,1.07
2022-12-09T09:04:02.693Z,1.24
2022-12-09T09:06:30.277Z,0.93
2022-12-09T09:08:59.330Z,0.73
2022-12-09T09:11:27.947Z,0.71
2022-12-09T09:13:55.568Z,0.77
2022-12-09T09:16:27.449Z,0.95
2022-12-09T09:19:02.029Z,1.32
2022-12-09T09:21:29.351Z,1.89
2022-12-09T09:23:57.969Z,2.33
2022-12-09T09:26:27.577Z,2.55
2022-12-09T09:28:55.745Z,2.42
2022-12-09T09:31:25.175Z,1.98
2022-12-09T09:33:53.027Z,2.64
2022-12-09T09:36:30.921Z,20.26
2022-12-09T09:39:00.282Z,25.80
2022-12-09T09:41:43.584Z,26.55
2022-12-09T09:44:18.772Z,23.64
2022-12-09T09:46:48.148Z,21.61
2022-12-09T09:49:24.583Z,16.29
2022-12-09T09:51:55.018Z,11.80
2022-12-09T09:54:22.264Z,9.04
2022-12-09T09:57:00.041Z,7.33
2022-12-09T09:59:37.351Z,6.43
2022-12-09T10:02:18.321Z,6.34
2022-12-09T10:05:00.138Z,6.41
2022-12-09T10:07:43.608Z,6.14
2022-12-09T10:10:21.641Z,5.20
2022-12-09T10:13:09.456Z,5.60
2022-12-09T10:15:48.087Z,5.13
2022-12-09T10:18:27.751Z,4.86
2022-12-09T10:20:56.355Z,4.93
2022-12-09T10:23:31.062Z,4.95
2022-12-09T10:26:08.729Z,4.44
2022-12-09T10:28:39.942Z,4.27
2022-12-09T10:31:12.162Z,3.91
2022-12-09T10:33:42.110Z,3.93
2022-12-09T10:36:28.223Z,4.19
2022-12-09T10:39:01.652Z,4.07
2022-12-09T10:41:42.230Z,4.64
2022-12-09T10:44:19.823Z,5.39
2022-12-09T10:46:47.874Z,5.34
2022-12-09T10:49:22.704Z,5.07
2022-12-09T10:51:52.447Z,4.63
2022-12-09T10:54:32.326Z,4.28
2022-12-09T10:57:05.870Z,4.37
2022-12-09T10:59:34.690Z,4.76
2022-12-09T11:02:18.268Z,8.00
2022-12-09T11:04:49.027Z,10.53
2022-12-09T11:07:23.217Z,10.94
2022-12-09T11:10:07.055Z,9.97
2022-12-09T11:12:40.899Z,7.42
2022-12-09T11:15:27.183Z,6.16
2022-12-09T11:17:59.427Z,5.54
2022-12-09T11:20:29.453Z,6.68
2022-12-09T11:23:05.436Z,6.46
2022-12-09T11:25:39.221Z,6.49
2022-12-09T11:28:24.613Z,5.69
2022-12-09T11:31:27.226Z,4.94
2022-12-09T11:33:51.059Z,4.70
2022-12-09T11:36:21.571Z,4.75
2022-12-09T11:38:54.547Z,5.53
2022-12-09T11:41:25.598Z,6.40
2022-12-09T11:43:56.369Z,6.52
2022-12-09T11:46:29.478Z,6.37
2022-12-09T11:49:03.861Z,6.65
2022-12-09T11:51:34.353Z,6.61
2022-12-09T11:54:05.817Z,5.95
2022-12-09T11:56:35.009Z,6.19
2022-12-09T11:59:06.749Z,6.04
2022-12-09T12:01:47.154Z,6.05
2022-12-09T12:04:20.275Z,5.86
2022-12-09T12:06:49.295Z,6.28
2022-12-09T12:09:23.701Z,6.19
2022-12-09T12:11:59.031Z,6.40
2022-12-09T12:14:30.623Z,5.38
2022-12-09T12:17:14.007Z,4.04
2022-12-09T12:19:44.870Z,3.23
2022-12-09T12:22:37.962Z,3.32
2022-12-09T12:25:24.584Z,3.83
2022-12-09T12:28:09.459Z,3.37
2022-12-09T12:30:46.208Z,3.39
2022-12-09T12:34:15.997Z,3.40
2022-12-09T12:36:31.871Z,2.44
2022-12-09T12:39:10.283Z,1.85
2022-12-09T12:41:49.286Z,1.58
2022-12-09T12:44:35.860Z,1.56
2022-12-09T12:47:13.596Z,1.73
2022-12-09T12:50:25.612Z,2.33
2022-12-09T12:53:00.982Z,2.12
2022-12-09T12:55:43.748Z,2.05
2022-12-09T12:58:17.179Z,2.00
2022-12-09T13:01:07.851Z,1.40
2022-12-09T13:03:43.583Z,1.36
2022-12-09T13:06:13.633Z,1.14
2022-12-09T13:08:48.543Z,0.95
2022-12-09T13:11:20.074Z,0.96
2022-12-09T13:13:54.008Z,0.94
2022-12-09T13:16:27.139Z,0.84
2022-12-09T13:18:58.747Z,0.74
2022-12-09T13:21:27.414Z,0.79
2022-12-09T13:24:06.082Z,0.76
2022-12-09T13:26:41.599Z,0.90
2022-12-09T13:29:23.684Z,1.17
2022-12-09T13:32:06.826Z,1.35
2022-12-09T13:34:40.322Z,1.79
2022-12-09T13:37:33.809Z,2.09
2022-12-09T13:40:02.239Z,2.27
2022-12-09T13:42:46.366Z,2.07
2022-12-09T13:45:16.605Z,1.53
2022-12-09T13:47:44.790Z,1.36
2022-12-09T13:50:34.617Z,3.30
2022-12-09T13:53:04.693Z,3.45
2022-12-09T13:55:48.206Z,3.16
2022-12-09T13:58:47.183Z,2.29
2022-12-09T14:01:37.390Z,2.12
2022-12-09T14:04:16.422Z,2.01
2022-12-09T14:06:55.318Z,3.39
2022-12-09T14:09:28.342Z,4.78
2022-12-09T14:11:56.081Z,5.20
2022-12-09T14:14:50.611Z,5.55
2022-12-09T14:17:57.390Z,4.93
2022-12-09T14:20:31.271Z,4.46
2022-12-09T14:23:18.822Z,4.41
2022-12-09T14:26:00.629Z,4.79
2022-12-09T14:28:39.561Z,5.11
2022-12-09T14:31:09.306Z,4.47
2022-12-09T14:33:39.149Z,3.85
2022-12-09T14:36:23.797Z,4.18
2022-12-09T14:39:23.199Z,4.29
2022-12-09T14:41:55.323Z,4.46
2022-12-09T14:44:31.203Z,4.46
2022-12-09T14:47:14.175Z,4.03
2022-12-09T14:49:48.905Z,3.54
2022-12-09T14:52:26.651Z,2.88
2022-12-09T14:54:58.250Z,2.31
2022-12-09T14:57:28.214Z,2.10
2022-12-09T14:59:56.615Z,2.10
2022-12-09T15:02:25.847Z,2.31
2022-12-09T15:04:55.036Z,2.33
2022-12-09T15:07:26.809Z,2.21
2022-12-09T15:09:59.928Z,2.84
2022-12-09T15:12:31.565Z,3.21
2022-12-09T15:15:05.493Z,2.77
2022-12-09T15:17:38.830Z,2.49
2022-12-09T15:20:10.273Z,2.05
2022-12-09T15:22:38.631Z,2.40
2022-12-09T15:25:18.787Z,2.31
2022-12-09T15:27:56.266Z,2.59
2022-12-09T15:30:25.566Z,2.86
2022-12-09T15:32:53.776Z,4.30
2022-12-09T15:35:23.300Z,3.78
2022-12-09T15:37:54.541Z,2.96
2022-12-09T15:40:23.501Z,2.76
2022-12-09T15:42:54.043Z,2.47
2022-12-09T15:45:25.341Z,2.35
2022-12-09T15:47:55.268Z,2.66
2022-12-09T15:50:29.989Z,2.97
2022-12-09T15:53:03.132Z,4.29
2022-12-09T15:55:35.735Z,4.13
2022-12-09T15:58:06.431Z,5.10
2022-12-09T16:00:39.366Z,7.03
2022-12-09T16:03:07.483Z,6.77
2022-12-09T16:05:41.828Z,5.47
2022-12-09T16:08:10.948Z,4.64
2022-12-09T16:10:47.814Z,4.69
2022-12-09T16:13:16.680Z,4.91
2022-12-09T16:15:52.608Z,4.69
2022-12-09T16:18:23.341Z,3.95
2022-12-09T16:21:17.988Z,4.20
2022-12-09T16:23:50.730Z,3.80
2022-12-09T16:26:23.807Z,3.51
2022-12-09T16:28:56.483Z,3.61
2022-12-09T16:31:23.609Z,4.67
2022-12-09T16:33:50.877Z,5.07
2022-12-09T16:36:19.841Z,5.74
2022-12-09T16:39:24.241Z,6.11
2022-12-09T16:42:00.852Z,5.89
2022-12-09T16:44:31.321Z,6.22
2022-12-09T16:47:09.789Z,5.61
2022-12-09T16:49:36.947Z,5.13
2022-12-09T16:52:05.491Z,5.73
2022-12-09T16:54:35.575Z,5.07
2022-12-09T16:57:07.394Z,4.39
2022-12-09T16:59:38.039Z,3.83
2022-12-09T17:02:20.077Z,3.61
2022-12-09T17:04:48.026Z,3.50
2022-12-09T17:07:16.535Z,3.63
2022-12-09T17:09:43.287Z,3.87
2022-12-09T17:12:11.598Z,3.93
2022-12-09T17:14:38.481Z,3.75
2022-12-09T17:17:08.966Z,3.70
2022-12-09T17:19:35.723Z,3.18
2022-12-09T17:22:02.711Z,2.90
2022-12-09T17:24:29.479Z,2.45
2022-12-09T17:26:57.705Z,3.12
2022-12-09T17:29:25.866Z,2.84
2022-12-09T17:31:52.762Z,2.43
2022-12-09T17:34:19.967Z,2.82
2022-12-09T17:36:47.461Z,2.93
2022-12-09T17:39:14.337Z,2.95
2022-12-09T17:41:41.535Z,3.42
2022-12-09T17:44:11.222Z,2.91
2022-12-09T17:46:39.626Z,2.80
2022-12-09T17:49:08.602Z,2.57
2022-12-09T17:51:36.569Z,2.73
2022-12-09T17:54:05.142Z,2.50
2022-12-09T17:56:32.313Z,1.66
2022-12-09T17:59:01.195Z,1.53
2022-12-09T18:01:28.351Z,1.56
2022-12-09T18:04:02.919Z,1.68
2022-12-09T18:06:33.213Z,1.63
2022-12-09T18:09:02.066Z,1.93
2022-12-09T18:11:28.903Z,2.47
2022-12-09T18:13:55.789Z,3.55
2022-12-09T18:16:22.984Z,3.38
2022-12-09T18:18:51.916Z,3.47
2022-12-09T18:21:20.967Z,3.93
2022-12-09T18:23:48.594Z,4.49
2022-12-09T18:26:27.074Z,4.32
2022-12-09T18:28:57.666Z,4.50
2022-12-09T18:31:31.456Z,4.08
2022-12-09T18:33:58.316Z,3.86
2022-12-09T18:36:28.508Z,4.27
2022-12-09T18:38:55.290Z,4.38
2022-12-09T18:41:25.504Z,4.45
2022-12-09T18:43:53.958Z,4.37
2022-12-09T18:46:25.707Z,4.66
2022-12-09T18:48:57.212Z,4.70
2022-12-09T18:51:26.211Z,4.81
2022-12-09T18:53:56.382Z,4.77
2022-12-09T18:56:23.347Z,5.39
2022-12-09T18:59:09.083Z,6.46
2022-12-09T19:01:41.595Z,5.29
2022-12-09T19:04:13.331Z,4.82
2022-12-09T19:06:41.739Z,4.57
2022-12-09T19:09:12.839Z,4.78
2022-12-09T19:11:47.321Z,5.03
2022-12-09T19:14:15.401Z,4.57
2022-12-09T19:16:44.305Z,3.80
2022-12-09T19:19:13.723Z,3.30
2022-12-09T19:21:41.032Z,3.49
2022-12-09T19:24:14.059Z,3.11
2022-12-09T19:26:44.327Z,2.63
2022-12-09T19:29:12.541Z,2.17
2022-12-09T19:31:41.743Z,1.88
2022-12-09T19:34:13.572Z,2.38
2022-12-09T19:36:41.162Z,3.08
2022-12-09T19:39:15.117Z,3.01
2022-12-09T19:41:43.191Z,2.79
2022-12-09T19:44:30.966Z,2.85
2022-12-09T19:47:05.096Z,2.50
2022-12-09T19:49:31.931Z,2.71
2022-12-09T19:52:00.905Z,2.69
2022-12-09T19:54:32.771Z,2.81
2022-12-09T19:57:01.308Z,2.45
2022-12-09T19:59:30.122Z,2.99
2022-12-09T20:01:58.324Z,2.63
2022-12-09T20:04:51.707Z,2.44
2022-12-09T20:07:20.699Z,2.15
2022-12-09T20:09:54.861Z,1.82
2022-12-09T20:12:23.308Z,1.99
2022-12-09T20:14:51.175Z,1.86
2022-12-09T20:17:19.453Z,2.20
2022-12-09T20:19:49.029Z,2.12
2022-12-09T20:22:17.132Z,2.08
2022-12-09T20:24:44.994Z,1.91
2022-12-09T20:27:15.318Z,1.72
2022-12-09T20:29:43.175Z,1.98
2022-12-09T20:32:11.007Z,2.22
2022-12-09T20:34:39.597Z,2.13
2022-12-09T20:37:09.952Z,2.28
2022-12-09T20:39:39.761Z,2.42
2022-12-09T20:42:11.877Z,2.34
2022-12-09T20:44:40.558Z,2.25
2022-12-09T20:47:07.400Z,2.15
2022-12-09T20:49:36.942Z,2.36
2022-12-09T20:52:04.758Z,2.28
2022-12-09T20:54:31.656Z,2.39
2022-12-09T20:56:58.907Z,2.16
2022-12-09T20:59:27.798Z,1.62
2022-12-09T21:01:58.606Z,1.54
2022-12-09T21:04:29.502Z,1.42
2022-12-09T21:06:57.710Z,1.32
2022-12-09T21:09:25.014Z,1.22
2022-12-09T21:11:51.941Z,1.01
2022-12-09T21:14:19.527Z,1.19
2022-12-09T21:16:51.057Z,1.21
2022-12-09T21:19:23.888Z,1.08
2022-12-09T21:21:50.877Z,1.03
2022-12-09T21:24:19.002Z,1.01
2022-12-09T21:26:46.288Z,0.98
2022-12-09T21:29:14.013Z,0.91
2022-12-09T21:31:43.003Z,1.16
2022-12-09T21:34:10.254Z,1.36
2022-12-09T21:36:40.416Z,1.28
2022-12-09T21:39:07.749Z,1.33
2022-12-09T21:41:37.128Z,1.37
2022-12-09T21:44:05.306Z,1.07
2022-12-09T21:46:34.336Z,0.95
2022-12-09T21:49:04.182Z,0.93
2022-12-09T21:51:32.009Z,0.77
2022-12-09T21:54:07.844Z,0.69
2022-12-09T21:56:37.528Z,0.61
2022-12-09T21:59:06.282Z,0.62
2022-12-09T22:01:38.575Z,0.61
2022-12-09T22:04:07.613Z,0.56
2022-12-09T22:06:35.798Z,0.44
2022-12-09T22:09:06.000Z,0.33
2022-12-09T22:11:36.011Z,0.39
2022-12-09T22:14:06.809Z,0.40
2022-12-09T22:16:37.801Z,0.45
2022-12-09T22:19:14.986Z,0.52
2022-12-09T22:21:44.653Z,0.42
2022-12-09T22:24:16.136Z,0.32
2022-12-09T22:26:44.515Z,0.33
2022-12-09T22:29:12.680Z,0.22
2022-12-09T22:31:41.642Z,0.20
2022-12-09T22:34:12.821Z,0.29
2022-12-09T22:36:40.124Z,0.20
2022-12-09T22:39:08.249Z,0.16
2022-12-09T22:41:36.741Z,0.28
2022-12-09T22:44:04.685Z,0.20
2022-12-09T22:46:33.734Z,0.35
2022-12-09T22:49:07.180Z,0.56
2022-12-09T22:51:35.887Z,0.48
2022-12-09T22:54:05.667Z,0.40
2022-12-09T22:56:32.954Z,0.43
2022-12-09T22:59:02.341Z,0.33
2022-12-09T23:01:31.466Z,0.18
2022-12-09T23:04:00.200Z,0.09
2022-12-09T23:06:28.201Z,0.06
2022-12-09T23:08:55.443Z,0.08
2022-12-09T23:11:24.717Z,0.09
2022-12-09T23:13:53.188Z,0.18
2022-12-09T23:16:23.307Z,0.14
2022-12-09T23:18:51.485Z,0.12
2022-12-09T23:21:20.607Z,0.14
2022-12-09T23:23:47.924Z,0.07
2022-12-09T23:26:18.270Z,0.04
2022-12-09T23:28:47.525Z,0.02
2022-12-09T23:31:16.706Z,0.01
2022-12-09T23:33:46.480Z,0.01
2022-12-09T23:36:16.165Z,0.00
2022-12-09T23:38:43.536Z,0.00
2022-12-09T23:41:11.635Z,0.00
2022-12-09T23:43:38.788Z,0.00
2022-12-09T23:46:14.950Z,0.00
2022-12-09T23:48:47.275Z,0.00
2022-12-09T23:51:16.455Z,0.00
2022-12-09T23:53:45.453Z,0.01
2022-12-09T23:56:15.665Z,0.00
2022-12-09T23:58:43.247Z,0.00
